Time,TemperatureF,DewpointF,PressureIn,WindDirection,WindDirectionDegrees,WindSpeedMPH,WindSpeedGustMPH,Humidity,HourlyPrecipIn,Conditions,Clouds,dailyrainin,SoftwareType,DateUTC
2013-02-05 00:00:00,36.3,32.8,29.88,SW,221,3.6,6.3,87,0.00,,,0.00,VWS V12.08,2013-02-04 23:00:00,
2013-02-05 00:03:00,36.5,33.0,29.91,SSW,204,3.1,5.8,87,0.00,,,0.00,VWS V12.08,2013-02-04 23:03:00,
2013-02-05 00:08:00,36.5,33.0,29.91,SW,224,5.4,5.8,87,0.00,,,0.00,VWS V12.08,2013-02-04 23:08:00,
2013-02-05 00:10:00,36.5,33.0,29.91,SSW,192,2.7,5.8,87,0.00,,,0.00,VWS V12.08,2013-02-04 23:10:00,
2013-02-05 00:13:00,36.5,33.0,29.91,SW,223,3.1,5.4,87,0.00,,,0.00,VWS V12.08,2013-02-04 23:13:00,
2013-02-05 00:18:00,36.7,33.2,29.88,SW,227,6.3,6.3,87,0.00,,,0.00,VWS V12.08,2013-02-04 23:18:00,
2013-02-05 00:20:00,36.7,33.2,29.88,SW,215,2.7,6.3,87,0.00,,,0.00,VWS V12.08,2013-02-04 23:20:00,
2013-02-05 00:23:00,36.7,33.2,29.88,SW,216,3.1,5.4,87,0.00,,,0.00,VWS V12.08,2013-02-04 23:23:00,
2013-02-05 00:28:00,36.7,33.2,29.88,SSW,195,2.2,5.4,87,0.00,,,0.00,VWS V12.08,2013-02-04 23:28:00,
2013-02-05 00:30:00,36.7,33.2,29.88,SW,230,3.1,5.4,87,0.00,,,0.00,VWS V12.08,2013-02-04 23:30:00,
2013-02-05 00:33:00,36.7,33.2,29.88,SW,219,0.0,3.1,87,0.00,,,0.00,VWS V12.08,2013-02-04 23:33:00,
2013-02-05 00:38:00,36.7,33.2,29.88,SSW,206,2.7,3.6,87,0.00,,,0.00,VWS V12.08,2013-02-04 23:38:00,
2013-02-05 00:40:00,36.7,33.2,29.88,SSW,206,0.0,3.6,87,0.00,,,0.00,VWS V12.08,2013-02-04 23:40:00,
2013-02-05 00:43:00,36.7,33.2,29.88,SSW,206,0.0,3.1,87,0.00,,,0.00,VWS V12.08,2013-02-04 23:43:00,
2013-02-05 00:48:00,36.7,33.2,29.88,SSW,206,0.0,3.1,87,0.00,,,0.00,VWS V12.08,2013-02-04 23:48:00,
2013-02-05 00:50:00,36.7,33.2,29.88,SSW,206,0.0,3.1,87,0.00,,,0.00,VWS V12.08,2013-02-04 23:50:00,
2013-02-05 00:53:00,36.7,33.2,29.88,SSW,206,0.0,2.2,87,0.00,,,0.00,VWS V12.08,2013-02-04 23:53:00,
2013-02-05 00:58:00,36.7,33.2,29.88,SSW,206,0.0,2.2,87,0.00,,,0.00,VWS V12.08,2013-02-04 23:58:00,
2013-02-05 01:00:00,36.5,33.0,29.88,SSW,206,0.0,2.7,87,0.00,,,0.00,VWS V12.08,2013-02-05 00:00:00,
2013-02-05 01:03:00,36.5,33.0,29.88,SSW,206,2.2,2.2,87,0.00,,,0.00,VWS V12.08,2013-02-05 00:03:00,
2013-02-05 01:08:00,36.5,33.0,29.88,SSW,206,0.0,2.2,87,0.00,,,0.00,VWS V12.08,2013-02-05 00:08:00,
2013-02-05 01:10:00,36.3,32.8,29.88,SSW,206,2.7,2.7,87,0.00,,,0.00,VWS V12.08,2013-02-05 00:10:00,
2013-02-05 01:13:00,36.3,32.8,29.88,SSW,206,2.2,3.1,87,0.00,,,0.00,VWS V12.08,2013-02-05 00:13:00,
2013-02-05 01:18:00,36.1,32.7,29.88,SSW,206,2.2,3.6,87,0.00,,,0.00,VWS V12.08,2013-02-05 00:18:00,
2013-02-05 01:20:00,36.1,32.7,29.88,SSW,206,2.7,4.0,87,0.00,,,0.00,VWS V12.08,2013-02-05 00:20:00,
2013-02-05 01:23:00,36.1,32.7,29.88,SSW,206,2.2,3.6,87,0.00,,,0.00,VWS V12.08,2013-02-05 00:23:00,
2013-02-05 01:28:00,36.1,32.7,29.88,SW,217,2.7,4.0,87,0.00,,,0.00,VWS V12.08,2013-02-05 00:28:00,
2013-02-05 01:30:00,36.3,32.8,29.88,SW,215,3.6,4.0,87,0.00,,,0.00,VWS V12.08,2013-02-05 00:30:00,
2013-02-05 01:33:00,36.3,32.8,29.91,SSW,199,3.1,3.6,87,0.00,,,0.00,VWS V12.08,2013-02-05 00:33:00,
2013-02-05 01:38:00,36.5,33.3,29.91,SSW,211,2.7,4.9,88,0.00,,,0.00,VWS V12.08,2013-02-05 00:38:00,
2013-02-05 01:40:00,36.5,33.3,29.91,WSW,237,5.4,5.4,88,0.00,,,0.00,VWS V12.08,2013-02-05 00:40:00,
2013-02-05 01:43:00,36.5,33.3,29.91,South,187,3.1,5.4,88,0.00,,,0.00,VWS V12.08,2013-02-05 00:43:00,
2013-02-05 01:48:00,36.7,33.5,29.91,SSW,197,4.0,5.4,88,0.00,,,0.00,VWS V12.08,2013-02-05 00:48:00,
2013-02-05 01:50:00,36.7,33.5,29.91,SW,219,3.6,5.4,88,0.00,,,0.00,VWS V12.08,2013-02-05 00:50:00,
2013-02-05 01:53:00,36.7,33.5,29.91,SW,224,3.6,4.0,88,0.00,,,0.00,VWS V12.08,2013-02-05 00:53:00,
2013-02-05 01:58:00,36.7,33.5,29.91,SSW,210,4.0,4.9,88,0.00,,,0.00,VWS V12.08,2013-02-05 00:58:00,
2013-02-05 02:00:00,36.9,33.7,29.91,SSW,195,2.7,4.9,88,0.00,,,0.00,VWS V12.08,2013-02-05 01:00:00,
2013-02-05 02:03:00,36.9,33.7,29.91,SSW,200,3.1,6.3,88,0.00,,,0.00,VWS V12.08,2013-02-05 01:03:00,
2013-02-05 02:08:00,36.9,33.7,29.91,SSW,212,4.0,6.3,88,0.00,,,0.00,VWS V12.08,2013-02-05 01:08:00,
2013-02-05 02:10:00,36.9,33.7,29.91,SW,223,4.9,6.3,88,0.00,,,0.00,VWS V12.08,2013-02-05 01:10:00,
2013-02-05 02:13:00,36.9,33.7,29.91,SSW,212,3.1,4.9,88,0.00,,,0.00,VWS V12.08,2013-02-05 01:13:00,
2013-02-05 02:18:00,36.9,33.7,29.91,SW,224,3.1,4.9,88,0.00,,,0.00,VWS V12.08,2013-02-05 01:18:00,
2013-02-05 02:20:00,36.9,33.7,29.91,SW,224,2.7,4.9,88,0.00,,,0.00,VWS V12.08,2013-02-05 01:20:00,
2013-02-05 02:23:00,36.9,33.7,29.91,SW,224,3.1,4.0,88,0.00,,,0.00,VWS V12.08,2013-02-05 01:23:00,
2013-02-05 02:28:00,36.9,33.7,29.91,South,186,2.7,4.0,88,0.00,,,0.00,VWS V12.08,2013-02-05 01:28:00,
2013-02-05 02:30:00,36.9,33.7,29.91,South,186,0.0,4.0,88,0.00,,,0.00,VWS V12.08,2013-02-05 01:30:00,
2013-02-05 02:33:00,36.9,33.7,29.91,South,186,2.7,2.7,88,0.00,,,0.00,VWS V12.08,2013-02-05 01:33:00,
2013-02-05 02:38:00,36.9,33.7,29.91,South,186,0.0,3.1,88,0.00,,,0.00,VWS V12.08,2013-02-05 01:38:00,
2013-02-05 02:40:00,36.9,33.7,29.91,SSW,202,2.2,3.6,88,0.00,,,0.00,VWS V12.08,2013-02-05 01:40:00,
2013-02-05 02:43:00,36.9,33.7,29.91,SSW,202,0.0,2.7,88,0.00,,,0.00,VWS V12.08,2013-02-05 01:43:00,
2013-02-05 02:48:00,36.9,33.7,29.91,SSW,202,0.0,2.7,88,0.00,,,0.00,VWS V12.08,2013-02-05 01:48:00,
2013-02-05 02:50:00,36.9,33.7,29.91,SSW,202,0.0,2.7,88,0.00,,,0.00,VWS V12.08,2013-02-05 01:50:00,
2013-02-05 02:53:00,36.9,33.7,29.91,SSW,202,0.0,0.0,88,0.00,,,0.00,VWS V12.08,2013-02-05 01:53:00,
2013-02-05 02:58:00,37.0,33.8,29.91,SW,231,3.6,4.0,88,0.00,,,0.00,VWS V12.08,2013-02-05 01:58:00,
2013-02-05 03:00:00,37.0,33.8,29.91,SW,231,3.1,4.0,88,0.00,,,0.00,VWS V12.08,2013-02-05 02:00:00,
2013-02-05 03:03:00,37.0,33.8,29.88,SW,231,3.1,4.0,88,0.00,,,0.00,VWS V12.08,2013-02-05 02:03:00,
2013-02-05 03:08:00,37.0,33.8,29.88,SSW,200,3.1,4.0,88,0.00,,,0.00,VWS V12.08,2013-02-05 02:08:00,
2013-02-05 03:10:00,37.0,33.8,29.88,SSW,204,4.0,4.0,88,0.00,,,0.00,VWS V12.08,2013-02-05 02:10:00,
2013-02-05 03:13:00,37.0,33.8,29.88,SW,220,3.6,4.0,88,0.00,,,0.00,VWS V12.08,2013-02-05 02:13:00,
2013-02-05 03:18:00,37.0,33.8,29.88,SW,229,4.9,6.3,88,0.00,,,0.00,VWS V12.08,2013-02-05 02:18:00,
2013-02-05 03:20:00,37.0,33.8,29.88,SSW,211,3.1,6.3,88,0.00,,,0.00,VWS V12.08,2013-02-05 02:20:00,
2013-02-05 03:23:00,37.2,34.3,29.88,SSW,202,4.9,5.8,89,0.00,,,0.00,VWS V12.08,2013-02-05 02:23:00,
2013-02-05 03:28:00,37.2,34.3,29.88,SSW,210,5.4,5.8,89,0.00,,,0.00,VWS V12.08,2013-02-05 02:28:00,
2013-02-05 03:30:00,37.2,34.3,29.88,SW,229,2.7,5.8,89,0.00,,,0.00,VWS V12.08,2013-02-05 02:30:00,
2013-02-05 03:33:00,37.2,34.3,29.88,SSW,211,2.7,5.4,89,0.00,,,0.00,VWS V12.08,2013-02-05 02:33:00,
2013-02-05 03:38:00,37.2,34.0,29.88,South,187,3.1,5.8,88,0.00,,,0.00,VWS V12.08,2013-02-05 02:38:00,
2013-02-05 03:40:00,37.2,34.0,29.88,SW,234,3.1,6.3,88,0.00,,,0.00,VWS V12.08,2013-02-05 02:40:00,
2013-02-05 03:43:00,37.2,34.3,29.88,SSW,212,4.9,5.8,89,0.00,,,0.00,VWS V12.08,2013-02-05 02:43:00,
2013-02-05 03:48:00,37.2,34.3,29.88,South,183,3.6,5.8,89,0.00,,,0.00,VWS V12.08,2013-02-05 02:48:00,
2013-02-05 03:50:00,37.2,34.3,29.88,SW,214,3.1,5.8,89,0.00,,,0.00,VWS V12.08,2013-02-05 02:50:00,
2013-02-05 03:53:00,37.0,34.1,29.88,SSW,211,3.6,6.3,89,0.00,,,0.00,VWS V12.08,2013-02-05 02:53:00,
2013-02-05 03:58:00,37.0,34.1,29.88,SSW,211,2.7,6.3,89,0.00,,,0.00,VWS V12.08,2013-02-05 02:58:00,
2013-02-05 04:00:00,37.0,34.1,29.88,SSW,204,3.1,6.3,89,0.00,,,0.00,VWS V12.08,2013-02-05 03:00:00,
2013-02-05 04:03:00,37.0,34.1,29.88,South,182,3.1,4.9,89,0.00,,,0.00,VWS V12.08,2013-02-05 03:03:00,
2013-02-05 04:08:00,36.9,33.9,29.88,SSW,204,4.9,5.8,89,0.00,,,0.00,VWS V12.08,2013-02-05 03:08:00,
2013-02-05 04:10:00,36.9,33.9,29.88,SSW,199,2.7,5.8,89,0.00,,,0.00,VWS V12.08,2013-02-05 03:10:00,
2013-02-05 04:13:00,36.9,33.9,29.88,SSW,212,3.1,5.8,89,0.00,,,0.00,VWS V12.08,2013-02-05 03:13:00,
2013-02-05 04:18:00,36.9,33.9,29.88,SW,214,3.1,5.8,89,0.00,,,0.00,VWS V12.08,2013-02-05 03:18:00,
2013-02-05 04:20:00,36.9,33.9,29.88,South,180,4.9,6.3,89,0.00,,,0.00,VWS V12.08,2013-02-05 03:20:00,
2013-02-05 04:23:00,36.9,33.9,29.88,SSW,213,3.6,5.8,89,0.00,,,0.00,VWS V12.08,2013-02-05 03:23:00,
2013-02-05 04:28:00,36.7,33.8,29.88,SW,221,3.1,5.8,89,0.00,,,0.00,VWS V12.08,2013-02-05 03:28:00,
2013-02-05 04:30:00,36.7,33.8,29.88,WSW,240,4.0,5.8,89,0.00,,,0.00,VWS V12.08,2013-02-05 03:30:00,
2013-02-05 04:33:00,36.7,33.8,29.88,SSW,212,2.7,4.9,89,0.00,,,0.00,VWS V12.08,2013-02-05 03:33:00,
2013-02-05 04:38:00,36.7,33.8,29.88,WSW,237,5.4,5.8,89,0.00,,,0.00,VWS V12.08,2013-02-05 03:38:00,
2013-02-05 04:40:00,36.7,33.8,29.88,SW,220,3.6,5.8,89,0.00,,,0.00,VWS V12.08,2013-02-05 03:40:00,
2013-02-05 04:43:00,36.7,33.8,29.88,SSW,199,3.6,4.9,89,0.00,,,0.00,VWS V12.08,2013-02-05 03:43:00,
2013-02-05 04:48:00,36.7,33.8,29.88,SW,229,3.1,4.9,89,0.00,,,0.00,VWS V12.08,2013-02-05 03:48:00,
2013-02-05 04:50:00,36.7,33.8,29.88,SW,214,2.2,4.9,89,0.00,,,0.00,VWS V12.08,2013-02-05 03:50:00,
2013-02-05 04:53:00,36.9,33.9,29.88,SW,227,3.1,4.9,89,0.00,,,0.00,VWS V12.08,2013-02-05 03:53:00,
2013-02-05 04:58:00,36.7,33.8,29.88,WSW,243,3.6,4.9,89,0.00,,,0.00,VWS V12.08,2013-02-05 03:58:00,
2013-02-05 05:00:00,36.7,33.8,29.88,WSW,244,0.0,4.9,89,0.00,,,0.00,VWS V12.08,2013-02-05 04:00:00,
2013-02-05 05:03:00,36.7,33.8,29.88,SSW,195,2.7,4.0,89,0.00,,,0.00,VWS V12.08,2013-02-05 04:03:00,
2013-02-05 05:08:00,36.3,33.4,29.88,SSW,196,0.0,4.0,89,0.00,,,0.00,VWS V12.08,2013-02-05 04:08:00,
2013-02-05 05:10:00,36.3,33.4,29.88,SSW,195,2.2,4.0,89,0.00,,,0.00,VWS V12.08,2013-02-05 04:10:00,
2013-02-05 05:13:00,36.1,33.2,29.88,SSW,194,2.7,3.1,89,0.00,,,0.00,VWS V12.08,2013-02-05 04:13:00,
2013-02-05 05:18:00,35.8,32.6,29.85,SSW,196,2.7,3.1,88,0.00,,,0.00,VWS V12.08,2013-02-05 04:18:00,
2013-02-05 05:20:00,35.8,32.6,29.85,SSW,196,0.0,3.1,88,0.00,,,0.00,VWS V12.08,2013-02-05 04:20:00,
2013-02-05 05:23:00,35.4,32.5,29.85,SSW,196,0.0,3.1,89,0.00,,,0.00,VWS V12.08,2013-02-05 04:23:00,
2013-02-05 05:28:00,35.1,32.2,29.85,SSW,196,0.0,3.1,89,0.00,,,0.00,VWS V12.08,2013-02-05 04:28:00,
2013-02-05 05:30:00,35.1,32.2,29.85,SSW,196,0.0,3.1,89,0.00,,,0.00,VWS V12.08,2013-02-05 04:30:00,
2013-02-05 05:33:00,34.9,32.0,29.85,SSW,196,2.2,2.7,89,0.00,,,0.00,VWS V12.08,2013-02-05 04:33:00,